SAS542 EGCC-EKCH
Flight info
| Callsign | SAS542 |
|---|---|
| Flight time | 1h 30m |
| Altitude | 39000 |
| Route | DESIG L603 LAMIX UT29 LIBSO UL975 ERDOW DCT ROPAL DCT LESRA DCT TESPI |
| Aircraft | A20N/M-SDE3FGIJ1RWXY/ALB1 |
Departure
| Time | 2026-05-04 18:08 |
|---|---|
| Airport | Manchester Airport (EGCC) |
Arrival
| Time | 2026-05-04 19:39 |
|---|---|
| Airport | Copenhagen Kastrup Airport (EKCH) |
| Time | Latitude | Longitude | Altitude | Speed | Heading |
|---|---|---|---|---|---|
| 2026-05-04 17:01 | 53.36820 | -2.28629 | 255 ft | 0 kts | 315° |
| 2026-05-04 17:55 | 53.36818 | -2.28627 | 255 ft | 2 kts | 315° |
| 2026-05-04 17:55 | 53.36801 | -2.28597 | 255 ft | 3 kts | 315° |
| 2026-05-04 17:55 | 53.36789 | -2.28576 | 255 ft | 4 kts | 248° |
| 2026-05-04 17:55 | 53.36804 | -2.28545 | 255 ft | 4 kts | 224° |
| 2026-05-04 17:56 | 53.36812 | -2.28532 | 255 ft | 0 kts | 224° |
| 2026-05-04 17:58 | 53.36809 | -2.28537 | 255 ft | 5 kts | 224° |
| 2026-05-04 17:58 | 53.36764 | -2.28611 | 255 ft | 12 kts | 224° |
| 2026-05-04 17:58 | 53.36710 | -2.28698 | 255 ft | 10 kts | 224° |
| 2026-05-04 17:59 | 53.36646 | -2.28768 | 255 ft | 12 kts | 203° |
| 2026-05-04 17:59 | 53.36584 | -2.28766 | 255 ft | 10 kts | 140° |
| 2026-05-04 17:59 | 53.36472 | -2.28577 | 255 ft | 11 kts | 135° |
| 2026-05-04 18:00 | 53.36454 | -2.28547 | 255 ft | 0 kts | 135° |
| 2026-05-04 18:01 | 53.36453 | -2.28545 | 255 ft | 1 kts | 135° |
| 2026-05-04 18:02 | 53.36370 | -2.28326 | 255 ft | 17 kts | 132° |
| 2026-05-04 18:02 | 53.36280 | -2.28176 | 255 ft | 19 kts | 134° |
| 2026-05-04 18:02 | 53.36195 | -2.28037 | 255 ft | 15 kts | 135° |
| 2026-05-04 18:02 | 53.36131 | -2.27968 | 255 ft | 8 kts | 142° |
| 2026-05-04 18:03 | 53.36102 | -2.27924 | 255 ft | 0 kts | 137° |
| 2026-05-04 18:03 | 53.36092 | -2.27908 | 255 ft | 4 kts | 135° |
| 2026-05-04 18:03 | 53.36049 | -2.27834 | 255 ft | 14 kts | 143° |
| 2026-05-04 18:03 | 53.35956 | -2.27736 | 255 ft | 17 kts | 163° |
| 2026-05-04 18:04 | 53.35847 | -2.27732 | 253 ft | 16 kts | 183° |
| 2026-05-04 18:04 | 53.35778 | -2.27673 | 251 ft | 11 kts | 142° |
| 2026-05-04 18:04 | 53.35626 | -2.27530 | 245 ft | 17 kts | 141° |
| 2026-05-04 18:05 | 53.35569 | -2.27455 | 245 ft | 8 kts | 142° |
| 2026-05-04 18:05 | 53.35517 | -2.27385 | 247 ft | 12 kts | 141° |
| 2026-05-04 18:05 | 53.35436 | -2.27274 | 247 ft | 16 kts | 140° |
| 2026-05-04 18:05 | 53.35344 | -2.27194 | 244 ft | 10 kts | 178° |
| 2026-05-04 18:06 | 53.35163 | -2.27246 | 230 ft | 9 kts | 191° |
| 2026-05-04 18:06 | 53.35144 | -2.27252 | 230 ft | 0 kts | 191° |
| 2026-05-04 18:07 | 53.35131 | -2.27257 | 229 ft | 5 kts | 191° |
| 2026-05-04 18:07 | 53.35063 | -2.27279 | 226 ft | 15 kts | 191° |
| 2026-05-04 18:07 | 53.34989 | -2.27364 | 225 ft | 18 kts | 232° |
| 2026-05-04 18:07 | 53.34799 | -2.27756 | 223 ft | 76 kts | 230° |
| 2026-05-04 18:08 | 53.34335 | -2.28713 | 224 ft | 133 kts | 231° |
| 2026-05-04 18:08 | 53.33720 | -2.29968 | 675 ft | 139 kts | 230° |
| 2026-05-04 18:08 | 53.33079 | -2.31262 | 1183 ft | 147 kts | 235° |
| 2026-05-04 18:08 | 53.32435 | -2.32629 | 1743 ft | 153 kts | 237° |
| 2026-05-04 18:09 | 53.31839 | -2.36029 | 2697 ft | 172 kts | 293° |
| 2026-05-04 18:09 | 53.33384 | -2.39584 | 3698 ft | 212 kts | 324° |
| 2026-05-04 18:10 | 53.34733 | -2.40841 | 4259 ft | 233 kts | 335° |
| 2026-05-04 18:10 | 53.36319 | -2.41860 | 4815 ft | 256 kts | 341° |
| 2026-05-04 18:10 | 53.38041 | -2.42784 | 5731 ft | 262 kts | 342° |
| 2026-05-04 18:10 | 53.39803 | -2.43693 | 6694 ft | 266 kts | 342° |
| 2026-05-04 18:11 | 53.41573 | -2.44622 | 7662 ft | 270 kts | 341° |
| 2026-05-04 18:11 | 53.43380 | -2.45567 | 8607 ft | 275 kts | 343° |
| 2026-05-04 18:11 | 53.45310 | -2.45698 | 9504 ft | 285 kts | 9° |
| 2026-05-04 18:11 | 53.47152 | -2.44378 | 10331 ft | 296 kts | 34° |
| 2026-05-04 18:12 | 53.48617 | -2.41781 | 10729 ft | 322 kts | 58° |
| 2026-05-04 18:12 | 53.49424 | -2.38151 | 11072 ft | 345 kts | 82° |
| 2026-05-04 18:12 | 53.49405 | -2.34083 | 11747 ft | 353 kts | 96° |
| 2026-05-04 18:12 | 53.49188 | -2.29954 | 12551 ft | 359 kts | 93° |
| 2026-05-04 18:13 | 53.49190 | -2.25761 | 13477 ft | 359 kts | 87° |
| 2026-05-04 18:13 | 53.49423 | -2.21563 | 14279 ft | 364 kts | 83° |
| 2026-05-04 18:13 | 53.50215 | -2.13061 | 15780 ft | 370 kts | 80° |
| 2026-05-04 18:14 | 53.50667 | -2.08788 | 16542 ft | 374 kts | 80° |
| 2026-05-04 18:14 | 53.51128 | -2.04455 | 17224 ft | 379 kts | 80° |
| 2026-05-04 18:14 | 53.51591 | -2.00077 | 17983 ft | 382 kts | 80° |
| 2026-05-04 18:15 | 53.52344 | -1.91180 | 19338 ft | 386 kts | 90° |
| 2026-05-04 18:15 | 53.51505 | -1.82249 | 20618 ft | 391 kts | 107° |
| 2026-05-04 18:15 | 53.50720 | -1.77873 | 21305 ft | 392 kts | 107° |
| 2026-05-04 18:16 | 53.49940 | -1.73468 | 21947 ft | 395 kts | 106° |
| 2026-05-04 18:16 | 53.49168 | -1.69097 | 22599 ft | 396 kts | 106° |
| 2026-05-04 18:16 | 53.48381 | -1.64642 | 23213 ft | 400 kts | 106° |
| 2026-05-04 18:17 | 53.46771 | -1.55569 | 24308 ft | 405 kts | 106° |
| 2026-05-04 18:17 | 53.45970 | -1.51088 | 24776 ft | 409 kts | 106° |
| 2026-05-04 18:17 | 53.44319 | -1.41912 | 25790 ft | 412 kts | 106° |
| 2026-05-04 18:18 | 53.43486 | -1.37299 | 26277 ft | 414 kts | 106° |
| 2026-05-04 18:18 | 53.42647 | -1.32660 | 26755 ft | 417 kts | 106° |
| 2026-05-04 18:18 | 53.41803 | -1.28004 | 27220 ft | 419 kts | 106° |
| 2026-05-04 18:18 | 53.40954 | -1.23326 | 27673 ft | 421 kts | 105° |
| 2026-05-04 18:19 | 53.39241 | -1.13907 | 28539 ft | 425 kts | 105° |
| 2026-05-04 18:19 | 53.38374 | -1.09167 | 28947 ft | 427 kts | 105° |
| 2026-05-04 18:19 | 53.37502 | -1.04408 | 29344 ft | 429 kts | 105° |
| 2026-05-04 18:20 | 53.36920 | -1.01242 | 29602 ft | 430 kts | 105° |
| 2026-05-04 18:20 | 53.36036 | -0.96438 | 29954 ft | 433 kts | 105° |
| 2026-05-04 18:20 | 53.35145 | -0.91614 | 30312 ft | 435 kts | 105° |
| 2026-05-04 18:20 | 53.34249 | -0.86777 | 30618 ft | 437 kts | 105° |
| 2026-05-04 18:21 | 53.33345 | -0.81905 | 30925 ft | 439 kts | 106° |
| 2026-05-04 18:21 | 53.32438 | -0.77007 | 31252 ft | 441 kts | 104° |
| 2026-05-04 18:21 | 53.31875 | -0.71989 | 31631 ft | 439 kts | 93° |
| 2026-05-04 18:21 | 53.31941 | -0.66910 | 32021 ft | 437 kts | 82° |
| 2026-05-04 18:22 | 53.32626 | -0.61968 | 32402 ft | 436 kts | 70° |
| 2026-05-04 18:22 | 53.33835 | -0.57329 | 32786 ft | 436 kts | 65° |
| 2026-05-04 18:22 | 53.35134 | -0.52744 | 33163 ft | 435 kts | 65° |
| 2026-05-04 18:22 | 53.36425 | -0.48166 | 33534 ft | 435 kts | 65° |
| 2026-05-04 18:23 | 53.37709 | -0.43584 | 33906 ft | 434 kts | 65° |
| 2026-05-04 18:23 | 53.38988 | -0.39007 | 34221 ft | 434 kts | 65° |
| 2026-05-04 18:23 | 53.40266 | -0.34414 | 34461 ft | 435 kts | 65° |
| 2026-05-04 18:23 | 53.41554 | -0.29816 | 34685 ft | 437 kts | 65° |
| 2026-05-04 18:24 | 53.42853 | -0.25203 | 34906 ft | 438 kts | 65° |
| 2026-05-04 18:24 | 53.44154 | -0.20575 | 35134 ft | 439 kts | 65° |
| 2026-05-04 18:24 | 53.45455 | -0.15937 | 35353 ft | 440 kts | 65° |
| 2026-05-04 18:24 | 53.46756 | -0.11284 | 35568 ft | 441 kts | 65° |
| 2026-05-04 18:25 | 53.48059 | -0.06613 | 35784 ft | 442 kts | 65° |
| 2026-05-04 18:25 | 53.49362 | -0.01933 | 35994 ft | 443 kts | 65° |
| 2026-05-04 18:25 | 53.50666 | 0.02769 | 36144 ft | 445 kts | 65° |
| 2026-05-04 18:25 | 53.52121 | 0.07378 | 36310 ft | 447 kts | 58° |
| 2026-05-04 18:26 | 53.53878 | 0.11685 | 36491 ft | 448 kts | 52° |
| 2026-05-04 18:26 | 53.55909 | 0.15676 | 36656 ft | 450 kts | 47° |
| 2026-05-04 18:26 | 53.58020 | 0.19568 | 36847 ft | 451 kts | 48° |
| 2026-05-04 18:26 | 53.60124 | 0.23488 | 37003 ft | 452 kts | 48° |
| 2026-05-04 18:27 | 53.62232 | 0.27428 | 37202 ft | 453 kts | 48° |
| 2026-05-04 18:27 | 53.64342 | 0.31376 | 37354 ft | 454 kts | 48° |
| 2026-05-04 18:27 | 53.66455 | 0.35333 | 37571 ft | 454 kts | 48° |
| 2026-05-04 18:27 | 53.68539 | 0.39239 | 37707 ft | 455 kts | 48° |
| 2026-05-04 18:28 | 53.70655 | 0.43210 | 37924 ft | 455 kts | 48° |
| 2026-05-04 18:28 | 53.72772 | 0.47190 | 38064 ft | 456 kts | 48° |
| 2026-05-04 18:28 | 53.74890 | 0.51176 | 38261 ft | 456 kts | 48° |
| 2026-05-04 18:28 | 53.77010 | 0.55162 | 38395 ft | 457 kts | 47° |
| 2026-05-04 18:29 | 53.79128 | 0.59166 | 38539 ft | 457 kts | 48° |
| 2026-05-04 18:29 | 53.81251 | 0.63185 | 38670 ft | 458 kts | 48° |
| 2026-05-04 18:29 | 53.83372 | 0.67206 | 38798 ft | 458 kts | 48° |
| 2026-05-04 18:29 | 53.85494 | 0.71237 | 38927 ft | 458 kts | 48° |
| 2026-05-04 18:30 | 53.89737 | 0.79311 | 39048 ft | 458 kts | 48° |
| 2026-05-04 18:30 | 53.91821 | 0.83394 | 39048 ft | 458 kts | 51° |
| 2026-05-04 18:31 | 53.95533 | 0.92163 | 39052 ft | 458 kts | 54° |
| 2026-05-04 18:31 | 53.99211 | 1.00996 | 39053 ft | 458 kts | 54° |
| 2026-05-04 18:32 | 54.02880 | 1.09841 | 39050 ft | 459 kts | 54° |
| 2026-05-04 18:32 | 54.06557 | 1.18765 | 39050 ft | 461 kts | 55° |
| 2026-05-04 18:33 | 54.10218 | 1.27693 | 39045 ft | 459 kts | 55° |
| 2026-05-04 18:33 | 54.13866 | 1.36621 | 39048 ft | 459 kts | 55° |
| 2026-05-04 18:34 | 54.17512 | 1.45574 | 39050 ft | 459 kts | 55° |
| 2026-05-04 18:34 | 54.21124 | 1.54476 | 39048 ft | 459 kts | 55° |
| 2026-05-04 18:35 | 54.24746 | 1.63437 | 39042 ft | 459 kts | 55° |
| 2026-05-04 18:35 | 54.28367 | 1.72446 | 39040 ft | 459 kts | 55° |
| 2026-05-04 18:36 | 54.31989 | 1.81461 | 39041 ft | 460 kts | 55° |
| 2026-05-04 18:36 | 54.35610 | 1.90505 | 39043 ft | 460 kts | 55° |
| 2026-05-04 18:37 | 54.39223 | 1.99569 | 39046 ft | 461 kts | 55° |
| 2026-05-04 18:37 | 54.42832 | 2.08659 | 39049 ft | 461 kts | 55° |
| 2026-05-04 18:38 | 54.46435 | 2.17777 | 39041 ft | 461 kts | 56° |
| 2026-05-04 18:38 | 54.50038 | 2.26925 | 39047 ft | 462 kts | 56° |
| 2026-05-04 18:39 | 54.53638 | 2.36093 | 39049 ft | 463 kts | 56° |
| 2026-05-04 18:39 | 54.57237 | 2.45290 | 39053 ft | 463 kts | 56° |
| 2026-05-04 18:40 | 54.60830 | 2.54503 | 39057 ft | 463 kts | 56° |
| 2026-05-04 18:40 | 54.64419 | 2.63745 | 39057 ft | 464 kts | 56° |
| 2026-05-04 18:41 | 54.68004 | 2.73007 | 39046 ft | 464 kts | 56° |
| 2026-05-04 18:41 | 54.71568 | 2.82307 | 39046 ft | 464 kts | 59° |
| 2026-05-04 18:42 | 54.74715 | 2.92067 | 39052 ft | 465 kts | 60° |
| 2026-05-04 18:42 | 54.77846 | 3.01858 | 39053 ft | 465 kts | 60° |
| 2026-05-04 18:43 | 54.80975 | 3.11672 | 39054 ft | 465 kts | 60° |
| 2026-05-04 18:43 | 54.84093 | 3.21497 | 39054 ft | 465 kts | 60° |
| 2026-05-04 18:44 | 54.87186 | 3.31282 | 39045 ft | 466 kts | 61° |
| 2026-05-04 18:44 | 54.90286 | 3.41131 | 39046 ft | 466 kts | 61° |
| 2026-05-04 18:45 | 54.93386 | 3.51018 | 39049 ft | 466 kts | 61° |
| 2026-05-04 18:45 | 54.96479 | 3.60926 | 39050 ft | 466 kts | 61° |
| 2026-05-04 18:46 | 54.99568 | 3.70863 | 39050 ft | 467 kts | 61° |
| 2026-05-04 18:46 | 55.02649 | 3.80813 | 39049 ft | 467 kts | 61° |
| 2026-05-04 18:47 | 55.05725 | 3.90788 | 39041 ft | 467 kts | 61° |
| 2026-05-04 18:47 | 55.08793 | 4.00783 | 39045 ft | 467 kts | 61° |
| 2026-05-04 18:48 | 55.11856 | 4.10804 | 39044 ft | 468 kts | 61° |
| 2026-05-04 18:48 | 55.14914 | 4.20845 | 39048 ft | 468 kts | 62° |
| 2026-05-04 18:49 | 55.17962 | 4.30902 | 39051 ft | 468 kts | 62° |
| 2026-05-04 18:49 | 55.21008 | 4.40991 | 39042 ft | 469 kts | 62° |
| 2026-05-04 18:50 | 55.23692 | 4.51372 | 39031 ft | 469 kts | 76° |
| 2026-05-04 18:50 | 55.25194 | 4.62496 | 39031 ft | 469 kts | 77° |
| 2026-05-04 18:51 | 55.26679 | 4.73643 | 39034 ft | 470 kts | 77° |
| 2026-05-04 18:51 | 55.28180 | 4.84806 | 39038 ft | 470 kts | 77° |
| 2026-05-04 18:52 | 55.29675 | 4.95981 | 39036 ft | 471 kts | 77° |
| 2026-05-04 18:52 | 55.31156 | 5.07183 | 39039 ft | 471 kts | 77° |
| 2026-05-04 18:53 | 55.32626 | 5.18398 | 39040 ft | 472 kts | 77° |
| 2026-05-04 18:53 | 55.34087 | 5.29631 | 39044 ft | 472 kts | 77° |
| 2026-05-04 18:54 | 55.35529 | 5.40806 | 39045 ft | 472 kts | 77° |
| 2026-05-04 18:54 | 55.36980 | 5.52132 | 39046 ft | 472 kts | 77° |
| 2026-05-04 18:55 | 55.38402 | 5.63329 | 39039 ft | 472 kts | 77° |
| 2026-05-04 18:55 | 55.40531 | 5.80256 | 39033 ft | 473 kts | 78° |
| 2026-05-04 18:56 | 55.41937 | 5.91552 | 39033 ft | 473 kts | 78° |
| 2026-05-04 18:56 | 55.43334 | 6.02865 | 39030 ft | 473 kts | 78° |
| 2026-05-04 18:57 | 55.44720 | 6.14175 | 39022 ft | 473 kts | 78° |
| 2026-05-04 18:57 | 55.46096 | 6.25506 | 39022 ft | 473 kts | 78° |
| 2026-05-04 18:58 | 55.47462 | 6.36843 | 39023 ft | 473 kts | 78° |
| 2026-05-04 18:58 | 55.48819 | 6.48198 | 39025 ft | 473 kts | 78° |
| 2026-05-04 18:59 | 55.50165 | 6.59567 | 39027 ft | 474 kts | 78° |
| 2026-05-04 18:59 | 55.51502 | 6.70951 | 39019 ft | 474 kts | 78° |
| 2026-05-04 19:00 | 55.52830 | 6.82348 | 39021 ft | 474 kts | 78° |
| 2026-05-04 19:00 | 55.54149 | 6.93770 | 39021 ft | 475 kts | 78° |
| 2026-05-04 19:01 | 55.55437 | 7.05215 | 39020 ft | 475 kts | 82° |
| 2026-05-04 19:01 | 55.56229 | 7.16801 | 39024 ft | 475 kts | 84° |
| 2026-05-04 19:02 | 55.56998 | 7.28405 | 39032 ft | 476 kts | 84° |
| 2026-05-04 19:02 | 55.57768 | 7.40034 | 39021 ft | 477 kts | 84° |
| 2026-05-04 19:03 | 55.58526 | 7.51679 | 39024 ft | 477 kts | 84° |
| 2026-05-04 19:03 | 55.59271 | 7.63337 | 39026 ft | 477 kts | 84° |
| 2026-05-04 19:04 | 55.60005 | 7.74998 | 39027 ft | 478 kts | 84° |
| 2026-05-04 19:04 | 55.60729 | 7.86682 | 39018 ft | 478 kts | 84° |
| 2026-05-04 19:05 | 55.61442 | 7.98370 | 39018 ft | 478 kts | 84° |
| 2026-05-04 19:05 | 55.62144 | 8.10076 | 39010 ft | 478 kts | 84° |
| 2026-05-04 19:06 | 55.62720 | 8.19805 | 39010 ft | 479 kts | 84° |
| 2026-05-04 19:06 | 55.63512 | 8.33428 | 39005 ft | 479 kts | 84° |
| 2026-05-04 19:07 | 55.64181 | 8.45155 | 39001 ft | 479 kts | 84° |
| 2026-05-04 19:07 | 55.64839 | 8.56866 | 39004 ft | 479 kts | 84° |
| 2026-05-04 19:08 | 55.65382 | 8.66711 | 38777 ft | 479 kts | 85° |
| 2026-05-04 19:08 | 55.65703 | 8.72574 | 38523 ft | 478 kts | 85° |
| 2026-05-04 19:08 | 55.66019 | 8.78423 | 38239 ft | 477 kts | 85° |
| 2026-05-04 19:09 | 55.66332 | 8.84266 | 37950 ft | 475 kts | 85° |
| 2026-05-04 19:09 | 55.66637 | 8.90004 | 37500 ft | 473 kts | 85° |
| 2026-05-04 19:09 | 55.66942 | 8.95794 | 36888 ft | 472 kts | 85° |
| 2026-05-04 19:09 | 55.67247 | 9.01649 | 36214 ft | 471 kts | 85° |
| 2026-05-04 19:10 | 55.67541 | 9.07340 | 35581 ft | 470 kts | 85° |
| 2026-05-04 19:10 | 55.67740 | 9.11222 | 35154 ft | 469 kts | 84° |
| 2026-05-04 19:10 | 55.68127 | 9.18833 | 34325 ft | 467 kts | 84° |
| 2026-05-04 19:10 | 55.68418 | 9.24638 | 33638 ft | 466 kts | 84° |
| 2026-05-04 19:11 | 55.68700 | 9.30288 | 32830 ft | 467 kts | 85° |
| 2026-05-04 19:11 | 55.68987 | 9.36109 | 31976 ft | 469 kts | 85° |
| 2026-05-04 19:11 | 55.69269 | 9.41874 | 31127 ft | 471 kts | 85° |
| 2026-05-04 19:11 | 55.69550 | 9.47674 | 30313 ft | 472 kts | 85° |
| 2026-05-04 19:12 | 55.69827 | 9.53459 | 29604 ft | 469 kts | 85° |
| 2026-05-04 19:12 | 55.70366 | 9.64882 | 28235 ft | 461 kts | 85° |
| 2026-05-04 19:12 | 55.70624 | 9.70452 | 27590 ft | 458 kts | 85° |
| 2026-05-04 19:13 | 55.70882 | 9.76052 | 26950 ft | 454 kts | 85° |
| 2026-05-04 19:13 | 55.71135 | 9.81611 | 26324 ft | 451 kts | 85° |
| 2026-05-04 19:13 | 55.71384 | 9.87131 | 25706 ft | 447 kts | 85° |
| 2026-05-04 19:13 | 55.71629 | 9.92614 | 25111 ft | 444 kts | 85° |
| 2026-05-04 19:14 | 55.71869 | 9.98055 | 24509 ft | 441 kts | 85° |
| 2026-05-04 19:14 | 55.72109 | 10.03537 | 23914 ft | 439 kts | 85° |
| 2026-05-04 19:14 | 55.72342 | 10.08912 | 23303 ft | 436 kts | 85° |
| 2026-05-04 19:14 | 55.72571 | 10.14256 | 22677 ft | 432 kts | 85° |
| 2026-05-04 19:15 | 55.72795 | 10.19547 | 22035 ft | 429 kts | 85° |
| 2026-05-04 19:15 | 55.73013 | 10.24726 | 21446 ft | 425 kts | 86° |
| 2026-05-04 19:15 | 55.73229 | 10.29938 | 20862 ft | 422 kts | 86° |
| 2026-05-04 19:15 | 55.73442 | 10.35106 | 20282 ft | 418 kts | 86° |
| 2026-05-04 19:16 | 55.73651 | 10.40230 | 19708 ft | 415 kts | 86° |
| 2026-05-04 19:16 | 55.73855 | 10.45315 | 19167 ft | 412 kts | 86° |
| 2026-05-04 19:16 | 55.74056 | 10.50347 | 18804 ft | 406 kts | 86° |
| 2026-05-04 19:16 | 55.74254 | 10.55361 | 18573 ft | 409 kts | 86° |
| 2026-05-04 19:17 | 55.74451 | 10.60396 | 18327 ft | 409 kts | 86° |
| 2026-05-04 19:17 | 55.74645 | 10.65422 | 18063 ft | 407 kts | 86° |
| 2026-05-04 19:17 | 55.74836 | 10.70414 | 17792 ft | 405 kts | 86° |
| 2026-05-04 19:17 | 55.75025 | 10.75387 | 17524 ft | 403 kts | 86° |
| 2026-05-04 19:18 | 55.75210 | 10.80339 | 17258 ft | 401 kts | 86° |
| 2026-05-04 19:18 | 55.75393 | 10.85269 | 16993 ft | 400 kts | 86° |
| 2026-05-04 19:18 | 55.75460 | 10.90194 | 16724 ft | 398 kts | 90° |
| 2026-05-04 19:18 | 55.75477 | 10.95099 | 16472 ft | 397 kts | 90° |
| 2026-05-04 19:19 | 55.75484 | 10.99983 | 16214 ft | 395 kts | 90° |
| 2026-05-04 19:19 | 55.75491 | 11.04852 | 15959 ft | 393 kts | 90° |
| 2026-05-04 19:19 | 55.75498 | 11.09699 | 15706 ft | 392 kts | 90° |
| 2026-05-04 19:19 | 55.75505 | 11.14529 | 15455 ft | 391 kts | 90° |
| 2026-05-04 19:20 | 55.75511 | 11.19343 | 15208 ft | 389 kts | 90° |
| 2026-05-04 19:20 | 55.75515 | 11.24135 | 14982 ft | 387 kts | 90° |
| 2026-05-04 19:20 | 55.75518 | 11.28844 | 14859 ft | 374 kts | 90° |
| 2026-05-04 19:20 | 55.75519 | 11.33348 | 14659 ft | 356 kts | 90° |
| 2026-05-04 19:21 | 55.75519 | 11.37630 | 14485 ft | 337 kts | 90° |
| 2026-05-04 19:21 | 55.75517 | 11.41686 | 14321 ft | 320 kts | 91° |
| 2026-05-04 19:21 | 55.75513 | 11.45574 | 14049 ft | 312 kts | 91° |
| 2026-05-04 19:21 | 55.75508 | 11.49408 | 13762 ft | 308 kts | 91° |
| 2026-05-04 19:22 | 55.75502 | 11.53222 | 13491 ft | 310 kts | 91° |
| 2026-05-04 19:22 | 55.75494 | 11.57035 | 13292 ft | 305 kts | 91° |
| 2026-05-04 19:22 | 55.75487 | 11.60721 | 13020 ft | 295 kts | 91° |
| 2026-05-04 19:22 | 55.75478 | 11.64347 | 12698 ft | 292 kts | 91° |
| 2026-05-04 19:23 | 55.75468 | 11.67943 | 12447 ft | 292 kts | 91° |
| 2026-05-04 19:23 | 55.75457 | 11.71556 | 12186 ft | 292 kts | 91° |
| 2026-05-04 19:23 | 55.75445 | 11.75143 | 11922 ft | 289 kts | 91° |
| 2026-05-04 19:23 | 55.75433 | 11.78707 | 11672 ft | 289 kts | 91° |
| 2026-05-04 19:24 | 55.75419 | 11.82262 | 11422 ft | 287 kts | 91° |
| 2026-05-04 19:24 | 55.75404 | 11.85798 | 11173 ft | 286 kts | 91° |
| 2026-05-04 19:24 | 55.75389 | 11.89324 | 10920 ft | 285 kts | 91° |
| 2026-05-04 19:24 | 55.75372 | 11.92833 | 10674 ft | 284 kts | 91° |
| 2026-05-04 19:25 | 55.75354 | 11.96329 | 10430 ft | 283 kts | 91° |
| 2026-05-04 19:25 | 55.75336 | 11.99803 | 10175 ft | 281 kts | 91° |
| 2026-05-04 19:25 | 55.75317 | 12.03218 | 9890 ft | 279 kts | 91° |
| 2026-05-04 19:25 | 55.75297 | 12.06639 | 9710 ft | 278 kts | 91° |
| 2026-05-04 19:26 | 55.75276 | 12.10083 | 9577 ft | 279 kts | 91° |
| 2026-05-04 19:26 | 55.75255 | 12.13521 | 9442 ft | 278 kts | 91° |
| 2026-05-04 19:26 | 55.75232 | 12.16941 | 9302 ft | 277 kts | 91° |
| 2026-05-04 19:26 | 55.75208 | 12.20358 | 9170 ft | 276 kts | 91° |
| 2026-05-04 19:27 | 55.75183 | 12.23768 | 8972 ft | 277 kts | 91° |
| 2026-05-04 19:27 | 55.75157 | 12.27180 | 8638 ft | 276 kts | 91° |
| 2026-05-04 19:27 | 55.75131 | 12.30577 | 8315 ft | 274 kts | 91° |
| 2026-05-04 19:27 | 55.75104 | 12.33942 | 7986 ft | 271 kts | 91° |
| 2026-05-04 19:28 | 55.75077 | 12.37256 | 7664 ft | 266 kts | 91° |
| 2026-05-04 19:28 | 55.75048 | 12.40550 | 7335 ft | 268 kts | 91° |
| 2026-05-04 19:28 | 55.75019 | 12.43834 | 7019 ft | 264 kts | 91° |
| 2026-05-04 19:28 | 55.74989 | 12.47074 | 6688 ft | 263 kts | 91° |
| 2026-05-04 19:29 | 55.74958 | 12.50328 | 6365 ft | 263 kts | 91° |
| 2026-05-04 19:29 | 55.74927 | 12.53552 | 6055 ft | 259 kts | 91° |
| 2026-05-04 19:29 | 55.74896 | 12.56754 | 5733 ft | 259 kts | 91° |
| 2026-05-04 19:29 | 55.74864 | 12.59932 | 5417 ft | 256 kts | 91° |
| 2026-05-04 19:30 | 55.74978 | 12.63061 | 5090 ft | 253 kts | 72° |
| 2026-05-04 19:30 | 55.75806 | 12.65752 | 4864 ft | 247 kts | 43° |
| 2026-05-04 19:30 | 55.77081 | 12.67785 | 4724 ft | 246 kts | 37° |
| 2026-05-04 19:30 | 55.78369 | 12.69774 | 4563 ft | 244 kts | 37° |
| 2026-05-04 19:31 | 55.79640 | 12.71748 | 4430 ft | 240 kts | 38° |
| 2026-05-04 19:31 | 55.80869 | 12.73667 | 4349 ft | 229 kts | 38° |
| 2026-05-04 19:31 | 55.82035 | 12.75497 | 4188 ft | 219 kts | 38° |
| 2026-05-04 19:31 | 55.82949 | 12.77649 | 3971 ft | 224 kts | 59° |
| 2026-05-04 19:32 | 55.83677 | 12.80112 | 3884 ft | 223 kts | 60° |
| 2026-05-04 19:32 | 55.84349 | 12.82576 | 3648 ft | 221 kts | 71° |
| 2026-05-04 19:32 | 55.84400 | 12.85278 | 3361 ft | 221 kts | 106° |
| 2026-05-04 19:32 | 55.83623 | 12.87511 | 3097 ft | 210 kts | 141° |
| 2026-05-04 19:33 | 55.82510 | 12.89026 | 2986 ft | 194 kts | 145° |
| 2026-05-04 19:33 | 55.81399 | 12.90478 | 2989 ft | 198 kts | 148° |
| 2026-05-04 19:33 | 55.80121 | 12.91160 | 2994 ft | 192 kts | 182° |
| 2026-05-04 19:33 | 55.78806 | 12.90886 | 2989 ft | 189 kts | 201° |
| 2026-05-04 19:34 | 55.77640 | 12.89885 | 2989 ft | 185 kts | 217° |
| 2026-05-04 19:34 | 55.76669 | 12.88603 | 2983 ft | 163 kts | 224° |
| 2026-05-04 19:34 | 55.75808 | 12.87297 | 2992 ft | 164 kts | 225° |
| 2026-05-04 19:34 | 55.74948 | 12.85969 | 2992 ft | 164 kts | 225° |
| 2026-05-04 19:35 | 55.74094 | 12.84649 | 2992 ft | 162 kts | 225° |
| 2026-05-04 19:35 | 55.73236 | 12.83322 | 2858 ft | 164 kts | 225° |
| 2026-05-04 19:35 | 55.72376 | 12.81993 | 2638 ft | 163 kts | 226° |
| 2026-05-04 19:35 | 55.71529 | 12.80683 | 2421 ft | 160 kts | 226° |
| 2026-05-04 19:36 | 55.70688 | 12.79380 | 2203 ft | 162 kts | 226° |
| 2026-05-04 19:36 | 55.69840 | 12.78067 | 1984 ft | 161 kts | 226° |
| 2026-05-04 19:36 | 55.69012 | 12.76786 | 1771 ft | 159 kts | 226° |
| 2026-05-04 19:36 | 55.68184 | 12.75503 | 1559 ft | 158 kts | 226° |
| 2026-05-04 19:37 | 55.67353 | 12.74215 | 1333 ft | 159 kts | 225° |
| 2026-05-04 19:37 | 55.66529 | 12.72938 | 1114 ft | 157 kts | 225° |
| 2026-05-04 19:37 | 55.65716 | 12.71667 | 895 ft | 155 kts | 224° |
| 2026-05-04 19:37 | 55.64892 | 12.70404 | 677 ft | 159 kts | 224° |
| 2026-05-04 19:38 | 55.64012 | 12.69029 | 434 ft | 172 kts | 223° |
| 2026-05-04 19:38 | 55.63098 | 12.67613 | 214 ft | 175 kts | 223° |
| 2026-05-04 19:38 | 55.62188 | 12.66210 | 16 ft | 165 kts | 222° |
| 2026-05-04 19:38 | 55.61526 | 12.65189 | 16 ft | 83 kts | 222° |
| 2026-05-04 19:39 | 55.61314 | 12.64826 | 18 ft | 21 kts | 238° |
| 2026-05-04 19:39 | 55.61246 | 12.64583 | 18 ft | 21 kts | 251° |
| 2026-05-04 19:39 | 55.61211 | 12.64397 | 17 ft | 15 kts | 251° |
| 2026-05-04 19:39 | 55.61186 | 12.64203 | 17 ft | 16 kts | 271° |
| 2026-05-04 19:40 | 55.61266 | 12.64109 | 17 ft | 16 kts | 16° |
| 2026-05-04 19:40 | 55.61373 | 12.64219 | 18 ft | 19 kts | 32° |
| 2026-05-04 19:40 | 55.61492 | 12.64355 | 17 ft | 21 kts | 38° |
| 2026-05-04 19:40 | 55.61621 | 12.64506 | 18 ft | 20 kts | 32° |
| 2026-05-04 19:41 | 55.61699 | 12.64595 | 17 ft | 9 kts | 33° |
| 2026-05-04 19:41 | 55.61723 | 12.64623 | 17 ft | 4 kts | 33° |
| 2026-05-04 19:41 | 55.61756 | 12.64661 | 17 ft | 8 kts | 33° |
| 2026-05-04 19:41 | 55.61811 | 12.64725 | 17 ft | 11 kts | 33° |
| 2026-05-04 19:42 | 55.61888 | 12.64813 | 17 ft | 15 kts | 33° |
| 2026-05-04 19:42 | 55.61982 | 12.64922 | 17 ft | 13 kts | 33° |
| 2026-05-04 19:42 | 55.62047 | 12.64997 | 19 ft | 7 kts | 33° |
| 2026-05-04 19:42 | 55.62073 | 12.65026 | 20 ft | 0 kts | 32° |
| 2026-05-04 19:44 | 55.62076 | 12.65030 | 19 ft | 3 kts | 32° |
| 2026-05-04 19:45 | 55.62115 | 12.65074 | 19 ft | 10 kts | 33° |
| 2026-05-04 19:45 | 55.62184 | 12.65154 | 17 ft | 13 kts | 33° |
| 2026-05-04 19:45 | 55.62258 | 12.65200 | 17 ft | 12 kts | 0° |
| 2026-05-04 19:45 | 55.62282 | 12.65208 | 17 ft | 0 kts | 30° |
| 2026-05-04 19:46 | 55.62283 | 12.65209 | 17 ft | 1 kts | 30° |
| 2026-05-04 19:46 | 55.62290 | 12.65238 | 18 ft | 4 kts | 78° |
| 2026-05-04 19:46 | 55.62296 | 12.65310 | 17 ft | 7 kts | 59° |
| 2026-05-04 19:46 | 55.62353 | 12.65332 | 17 ft | 10 kts | 358° |
| 2026-05-04 19:47 | 55.62434 | 12.65329 | 17 ft | 13 kts | 359° |
| 2026-05-04 19:47 | 55.62522 | 12.65325 | 17 ft | 8 kts | 358° |
| 2026-05-04 19:47 | 55.62583 | 12.65322 | 17 ft | 8 kts | 359° |
| 2026-05-04 19:47 | 55.62635 | 12.65305 | 17 ft | 5 kts | 327° |
| 2026-05-04 19:48 | 55.62656 | 12.65294 | 17 ft | 1 kts | 12° |
| 2026-05-04 19:48 | 55.62682 | 12.65306 | 17 ft | 6 kts | 17° |
| 2026-05-04 19:48 | 55.62714 | 12.65324 | 17 ft | 0 kts | 16° |
| 2026-05-04 19:48 | 55.62721 | 12.65328 | 17 ft | 2 kts | 17° |
| 2026-05-04 19:49 | 55.62722 | 12.65328 | 17 ft | 0 kts | 17° |